createdAt,value
2023-02-12T00:02:35.473Z,8.30
2023-02-12T00:07:39.743Z,8.40
2023-02-12T00:12:44.021Z,8.40
2023-02-12T00:17:50.507Z,8.40
2023-02-12T00:23:04.979Z,8.40
2023-02-12T00:28:16.141Z,8.40
2023-02-12T00:33:27.671Z,8.40
2023-02-12T00:38:38.928Z,8.40
2023-02-12T00:43:52.543Z,8.40
2023-02-12T00:48:54.811Z,8.30
2023-02-12T00:53:59.178Z,8.40
2023-02-12T00:59:02.591Z,8.40
2023-02-12T01:04:12.633Z,8.40
2023-02-12T01:09:31.744Z,8.30
2023-02-12T01:14:39.662Z,8.30
2023-02-12T01:19:45.775Z,8.40
2023-02-12T01:25:07.794Z,8.30
2023-02-12T01:30:14.687Z,8.30
2023-02-12T01:35:19.531Z,8.30
2023-02-12T01:40:21.749Z,8.30
2023-02-12T01:45:53.566Z,8.30
2023-02-12T01:50:56.838Z,8.30
2023-02-12T01:56:04.313Z,8.30
2023-02-12T02:01:40.057Z,8.30
2023-02-12T02:06:53.307Z,8.20
2023-02-12T02:12:18.774Z,8.20
2023-02-12T02:17:50.866Z,8.10
2023-02-12T02:23:28.608Z,8.10
2023-02-12T02:28:50.760Z,8.20
2023-02-12T02:34:24.962Z,8.10
2023-02-12T02:39:39.501Z,8.10
2023-02-12T02:44:55.581Z,8.20
2023-02-12T02:50:20.884Z,8.20
2023-02-12T02:55:41.352Z,8.10
2023-02-12T03:00:53.402Z,8.10
2023-02-12T03:06:05.800Z,8.10
2023-02-12T03:11:58.607Z,8.10
2023-02-12T03:17:12.919Z,8.00
2023-02-12T03:22:38.211Z,8.00
2023-02-12T03:27:48.830Z,8.00
2023-02-12T03:33:36.788Z,8.10
2023-02-12T03:38:49.414Z,8.10
2023-02-12T03:44:03.071Z,8.00
2023-02-12T03:49:20.230Z,8.00
2023-02-12T03:54:38.424Z,8.00
2023-02-12T03:59:51.737Z,8.00
2023-02-12T04:05:04.188Z,8.00
2023-02-12T04:10:13.208Z,8.00
2023-02-12T04:15:46.635Z,8.00
2023-02-12T04:21:16.505Z,8.00
2023-02-12T04:26:33.613Z,8.00
2023-02-12T04:31:46.209Z,8.00
2023-02-12T04:37:00.369Z,7.90
2023-02-12T04:42:02.761Z,7.90
2023-02-12T04:47:05.362Z,7.90
2023-02-12T04:52:14.436Z,7.90
2023-02-12T04:57:22.392Z,7.90
2023-02-12T05:02:32.203Z,7.90
2023-02-12T05:07:34.391Z,7.90
2023-02-12T05:14:18.774Z,7.90
2023-02-12T05:18:15.721Z,7.90
2023-02-12T05:23:17.993Z,7.90
2023-02-12T05:28:37.689Z,7.90
2023-02-12T05:33:47.286Z,8.00
2023-02-12T05:39:01.277Z,7.90
2023-02-12T05:44:31.512Z,7.90
2023-02-12T05:49:37.530Z,7.90
2023-02-12T05:55:00.642Z,7.90
2023-02-12T06:00:13.637Z,7.90
2023-02-12T06:05:25.746Z,7.90
2023-02-12T06:10:47.064Z,7.90
2023-02-12T06:16:12.288Z,7.90
2023-02-12T06:21:24.755Z,7.90
2023-02-12T06:26:27.250Z,7.90
2023-02-12T06:31:35.412Z,7.90
2023-02-12T06:36:49.666Z,7.90
2023-02-12T06:42:00.695Z,7.90
2023-02-12T06:47:06.043Z,7.90
2023-02-12T06:52:10.579Z,7.90
2023-02-12T06:57:28.356Z,7.80
2023-02-12T07:02:39.079Z,7.80
2023-02-12T07:07:45.314Z,7.90
2023-02-12T07:12:49.971Z,7.90
2023-02-12T07:18:02.379Z,7.90
2023-02-12T07:23:10.863Z,7.90
2023-02-12T07:28:15.685Z,7.80
2023-02-12T07:33:27.320Z,7.80
2023-02-12T07:38:30.811Z,7.80
2023-02-12T07:43:37.326Z,7.90
2023-02-12T07:48:43.198Z,7.80
2023-02-12T07:53:51.987Z,7.80
2023-02-12T07:58:54.279Z,7.90
2023-02-12T08:04:25.143Z,7.80
2023-02-12T08:09:31.293Z,7.90
2023-02-12T08:14:42.562Z,7.90
2023-02-12T08:19:51.247Z,7.90
2023-02-12T08:24:59.029Z,7.90
2023-02-12T08:30:13.361Z,7.90
2023-02-12T08:35:22.160Z,7.90
2023-02-12T08:40:36.029Z,8.00
2023-02-12T08:46:03.810Z,8.00
2023-02-12T08:51:20.464Z,8.00
2023-02-12T08:56:29.617Z,8.00
2023-02-12T09:01:39.692Z,8.00
2023-02-12T09:06:43.276Z,8.00
2023-02-12T09:11:51.532Z,8.00
2023-02-12T09:16:57.514Z,8.10
2023-02-12T09:22:03.393Z,8.10
2023-02-12T09:27:05.947Z,8.20
2023-02-12T09:32:13.399Z,8.20
2023-02-12T09:37:24.537Z,8.20
2023-02-12T09:42:52.151Z,8.30
2023-02-12T09:48:10.351Z,8.30
2023-02-12T09:53:27.437Z,8.30
2023-02-12T09:58:41.810Z,8.40
2023-02-12T10:03:54.454Z,8.50
2023-02-12T10:09:18.592Z,8.50
2023-02-12T10:14:32.311Z,8.60
2023-02-12T10:20:07.984Z,8.60
2023-02-12T10:25:23.236Z,8.70
2023-02-12T10:30:44.707Z,8.70
2023-02-12T10:36:22.264Z,8.70
2023-02-12T10:41:37.932Z,8.80
2023-02-12T10:46:46.448Z,8.80
2023-02-12T10:52:23.727Z,8.90
2023-02-12T10:57:58.652Z,8.90
2023-02-12T11:03:17.303Z,9.00
2023-02-12T11:08:39.804Z,9.00
2023-02-12T11:13:53.142Z,9.00
2023-02-12T11:19:12.821Z,9.10
2023-02-12T11:24:32.519Z,9.10
2023-02-12T11:29:41.147Z,9.20
2023-02-12T11:34:46.617Z,9.20
2023-02-12T11:40:04.049Z,9.20
2023-02-12T11:45:10.019Z,9.30
2023-02-12T11:50:34.964Z,9.20
2023-02-12T11:55:59.700Z,9.30
2023-02-12T12:01:19.429Z,9.30
2023-02-12T12:06:36.729Z,9.20
2023-02-12T12:11:50.969Z,9.30
2023-02-12T12:17:19.433Z,9.20
2023-02-12T12:22:48.469Z,9.30
2023-02-12T12:28:26.216Z,9.30
2023-02-12T12:33:39.386Z,9.30
2023-02-12T12:38:55.676Z,9.30
2023-02-12T12:44:13.726Z,9.30
2023-02-12T12:49:32.484Z,9.30
2023-02-12T12:54:47.036Z,9.30
2023-02-12T13:00:01.480Z,9.30
2023-02-12T13:05:25.976Z,9.30
2023-02-12T13:11:01.898Z,9.40
2023-02-12T13:16:28.460Z,9.40
2023-02-12T13:22:15.018Z,9.40
2023-02-12T13:27:32.652Z,9.40
2023-02-12T13:32:43.478Z,9.40
2023-02-12T13:37:49.029Z,9.40
2023-02-12T13:42:58.564Z,9.40
2023-02-12T13:48:12.549Z,9.40
2023-02-12T13:53:26.432Z,9.40
2023-02-12T13:58:52.433Z,9.30
2023-02-12T14:03:54.433Z,9.30
2023-02-12T14:09:11.379Z,9.30
2023-02-12T14:14:13.382Z,9.30
2023-02-12T14:19:38.151Z,9.30
2023-02-12T14:24:51.632Z,9.30
2023-02-12T14:30:26.285Z,9.30
2023-02-12T14:35:36.084Z,9.20
2023-02-12T14:40:44.125Z,9.20
2023-02-12T14:45:46.031Z,9.20
2023-02-12T14:50:52.133Z,9.10
2023-02-12T14:55:54.731Z,9.10
2023-02-12T15:00:57.740Z,9.10
2023-02-12T15:06:25.195Z,9.10
2023-02-12T15:11:39.263Z,9.10
2023-02-12T15:16:47.155Z,9.10
2023-02-12T15:21:51.542Z,9.10
2023-02-12T15:26:58.899Z,9.00
2023-02-12T15:32:05.101Z,9.00
2023-02-12T15:37:08.285Z,9.00
2023-02-12T15:42:35.093Z,9.00
2023-02-12T15:47:37.006Z,8.90
2023-02-12T15:52:40.103Z,8.90
2023-02-12T15:57:44.092Z,8.90
2023-02-12T16:02:52.585Z,8.90
2023-02-12T16:07:54.776Z,8.90
2023-02-12T16:12:56.855Z,8.90
2023-02-12T16:18:00.080Z,8.90
2023-02-12T16:23:06.097Z,8.90
2023-02-12T16:28:21.066Z,8.90
2023-02-12T16:33:44.958Z,8.90
2023-02-12T16:38:51.416Z,8.80
2023-02-12T16:44:02.633Z,8.80
2023-02-12T16:55:21.873Z,8.80
2023-02-12T18:23:04.176Z,8.50
2023-02-12T20:52:56.916Z,8.00
2023-02-12T21:29:21.905Z,8.00
